KLWA

South Haven Area Regional Airport

South Haven, Michigan, USA
METAR KLWA 232055Z AUTO 34011G19KT 10SM SCT025 BKN034 10/02 A3029 RMK AO2 T00950021
Observed Flight Rules
Oct-23 @ 20:55 UTC (11 minutes ago) Visual Flight Rules
Wind Visibility Clouds
340° at 11 knots
 Gusting to 19 knots
10 miles
  • Scattered at 2,500' AGL
  • Broken at 3,400' AGL
Temperatures Readings
Current 10°C / 50°F
Dewpoint 2°C / 36°F
Humidity 58%
Altimeter 30.29" Hg
Pressure 1026 hPa
Elevation 203
METAR KLWA 232055Z AUTO 34011G19KT 10SM SCT025 BKN034 10/02 A3029 RMK AO2 T00950021
Observed Flight Rules
Oct-23 @ 20:55 UTC
(11 minutes ago)
VFR
Wind Visibility
340° at 11 knots
 Gusting to 19 knots
10 miles
Clouds
  • Scattered at 2,500' AGL
  • Broken at 3,400' AGL
Temperature Dewpoint
10°C / 50°F 2°C / 36°F
Humidity Altimeter Pressure
58% 30.29" Hg 1026 hPa